createdAt,value
2019-03-01T00:02:29.033Z,8.40
2019-03-01T00:05:35.888Z,8.40
2019-03-01T00:08:17.220Z,8.40
2019-03-01T00:11:23.994Z,8.30
2019-03-01T00:14:30.010Z,8.20
2019-03-01T00:17:31.748Z,8.20
2019-03-01T00:20:45.854Z,8.10
2019-03-01T00:23:56.050Z,8.10
2019-03-01T00:26:48.182Z,8.10
2019-03-01T00:29:49.075Z,8.00
2019-03-01T00:32:47.042Z,7.90
2019-03-01T00:35:43.691Z,7.90
2019-03-01T00:38:29.826Z,7.90
2019-03-01T00:41:24.847Z,7.90
2019-03-01T00:44:19.545Z,7.80
2019-03-01T00:46:49.238Z,7.80
2019-03-01T00:49:19.014Z,7.70
2019-03-01T00:51:48.654Z,7.70
2019-03-01T00:54:18.273Z,7.70
2019-03-01T00:56:47.961Z,7.70
2019-03-01T00:59:17.613Z,7.80
2019-03-01T01:01:47.418Z,7.80
2019-03-01T01:04:17.037Z,7.80
2019-03-01T01:06:46.650Z,7.80
2019-03-01T01:09:16.343Z,7.80
2019-03-01T01:11:45.957Z,7.80
2019-03-01T01:14:15.566Z,7.70
2019-03-01T01:16:45.179Z,7.70
2019-03-01T01:19:14.864Z,7.70
2019-03-01T01:21:44.488Z,7.60
2019-03-01T01:24:14.122Z,7.60
2019-03-01T01:26:43.714Z,7.60
2019-03-01T01:29:13.338Z,7.60
2019-03-01T01:31:42.950Z,7.60
2019-03-01T01:34:12.622Z,7.60
2019-03-01T01:36:42.233Z,7.50
2019-03-01T01:39:12.304Z,7.50
2019-03-01T01:41:41.938Z,7.50
2019-03-01T01:44:11.561Z,7.40
2019-03-01T01:46:41.283Z,7.40
2019-03-01T01:49:10.893Z,7.40
2019-03-01T01:51:40.521Z,7.40
2019-03-01T01:54:10.154Z,7.40
2019-03-01T01:56:40.009Z,7.40
2019-03-01T01:59:09.686Z,7.40
2019-03-01T02:01:39.398Z,7.40
2019-03-01T02:04:09.030Z,7.40
2019-03-01T02:06:38.635Z,7.40
2019-03-01T02:09:24.426Z,7.40
2019-03-01T02:11:54.369Z,7.40
2019-03-01T02:14:25.479Z,7.50
2019-03-01T02:16:56.106Z,7.50
2019-03-01T02:19:25.730Z,7.40
2019-03-01T02:21:55.327Z,7.40
2019-03-01T02:24:25.039Z,7.40
2019-03-01T02:27:20.043Z,7.30
2019-03-01T02:29:49.969Z,7.30
2019-03-01T02:32:32.592Z,7.20
2019-03-01T02:35:02.213Z,7.10
2019-03-01T02:37:32.942Z,7.10
2019-03-01T02:40:02.782Z,7.10
2019-03-01T02:42:32.456Z,7.00
2019-03-01T02:45:02.094Z,7.10
2019-03-01T02:47:31.711Z,7.10
2019-03-01T02:50:01.331Z,7.10
2019-03-01T02:52:30.955Z,7.20
2019-03-01T02:55:00.601Z,7.20
2019-03-01T02:57:30.303Z,7.20
2019-03-01T02:59:59.937Z,7.20
2019-03-01T03:02:29.545Z,7.20
2019-03-01T03:04:59.163Z,7.10
2019-03-01T03:07:37.270Z,7.40
2019-03-01T03:10:07.033Z,7.20
2019-03-01T03:12:36.696Z,7.20
2019-03-01T03:15:07.021Z,7.20
2019-03-01T03:17:36.641Z,7.20
2019-03-01T03:20:06.941Z,7.20
2019-03-01T03:22:36.574Z,7.20
2019-03-01T03:25:06.888Z,7.20
2019-03-01T03:27:36.498Z,7.20
2019-03-01T03:30:07.414Z,7.20
2019-03-01T03:32:37.049Z,7.20
2019-03-01T03:35:06.935Z,7.20
2019-03-01T03:37:36.553Z,7.20
2019-03-01T03:40:07.598Z,7.30
2019-03-01T03:42:37.212Z,7.30
2019-03-01T03:45:07.923Z,7.30
2019-03-01T03:47:37.572Z,7.30
2019-03-01T03:50:08.737Z,7.30
2019-03-01T03:52:38.381Z,7.30
2019-03-01T03:55:09.348Z,7.30
2019-03-01T03:57:39.138Z,7.40
2019-03-01T04:00:17.510Z,7.30
2019-03-01T04:02:47.427Z,7.30
2019-03-01T04:05:17.234Z,7.30
2019-03-01T04:07:47.141Z,7.30
2019-03-01T04:10:16.827Z,7.20
2019-03-01T04:12:46.559Z,7.30
2019-03-01T04:15:16.511Z,7.30
2019-03-01T04:17:46.182Z,7.30
2019-03-01T04:20:16.686Z,7.40
2019-03-01T04:22:46.483Z,7.40
2019-03-01T04:25:16.364Z,7.40
2019-03-01T04:27:45.994Z,7.40
2019-03-01T04:30:16.555Z,7.40
2019-03-01T04:32:46.764Z,7.40
2019-03-01T04:35:17.228Z,7.40
2019-03-01T04:37:46.857Z,7.40
2019-03-01T04:40:16.577Z,7.40
2019-03-01T04:42:46.355Z,7.50
2019-03-01T04:45:16.104Z,7.50
2019-03-01T04:47:45.713Z,7.50
2019-03-01T04:50:15.427Z,7.50
2019-03-01T04:52:45.056Z,7.50
2019-03-01T04:55:17.030Z,7.50
2019-03-01T04:57:46.738Z,7.50
2019-03-01T05:00:35.627Z,7.50
2019-03-01T05:03:05.329Z,7.50
2019-03-01T05:05:35.053Z,7.50
2019-03-01T05:08:05.723Z,7.50
2019-03-01T05:10:35.327Z,7.50
2019-03-01T05:13:05.032Z,7.60
2019-03-01T05:15:35.628Z,7.60
2019-03-01T05:18:05.307Z,7.60
2019-03-01T05:20:34.922Z,7.60
2019-03-01T05:23:06.426Z,7.70
2019-03-01T05:25:36.081Z,7.70
2019-03-01T05:28:05.754Z,7.70
2019-03-01T05:30:36.355Z,7.70
2019-03-01T05:33:05.962Z,7.70
2019-03-01T05:35:35.804Z,7.80
2019-03-01T05:38:05.488Z,7.80
2019-03-01T05:40:35.117Z,7.80
2019-03-01T05:43:04.816Z,7.80
2019-03-01T05:45:35.498Z,7.90
2019-03-01T05:48:05.137Z,7.90
2019-03-01T05:50:34.822Z,7.90
2019-03-01T05:53:04.525Z,7.80
2019-03-01T05:55:34.134Z,7.90
2019-03-01T05:58:26.739Z,7.80
2019-03-01T06:00:58.422Z,7.80
2019-03-01T06:04:05.439Z,7.80
2019-03-01T06:07:02.523Z,7.80
2019-03-01T06:10:05.577Z,7.70
2019-03-01T06:13:06.330Z,7.60
2019-03-01T06:16:15.610Z,7.60
2019-03-01T06:19:23.493Z,7.40
2019-03-01T06:22:34.465Z,7.40
2019-03-01T06:25:57.772Z,7.30
2019-03-01T06:28:45.210Z,7.30
2019-03-01T06:32:04.238Z,7.20
2019-03-01T06:35:12.139Z,7.10
2019-03-01T06:38:12.076Z,7.00
2019-03-01T06:41:23.613Z,7.00
2019-03-01T06:44:29.536Z,6.90
2019-03-01T06:47:10.911Z,6.90
2019-03-01T06:50:03.949Z,6.90
2019-03-01T06:52:33.674Z,6.80
2019-03-01T06:55:03.321Z,6.80
2019-03-01T06:57:32.934Z,6.80
2019-03-01T07:00:04.259Z,6.80
2019-03-01T07:02:42.398Z,6.70
2019-03-01T07:05:12.101Z,6.70
2019-03-01T07:07:41.696Z,6.70
2019-03-01T07:10:11.295Z,6.70
2019-03-01T07:12:40.963Z,6.70
2019-03-01T07:15:10.823Z,6.70
2019-03-01T07:17:40.452Z,6.70
2019-03-01T07:20:10.079Z,6.70
2019-03-01T07:22:39.734Z,6.80
2019-03-01T07:25:09.534Z,6.70
2019-03-01T07:27:39.238Z,6.70
2019-03-01T07:30:09.642Z,6.70
2019-03-01T07:32:39.287Z,6.70
2019-03-01T07:35:09.176Z,6.70
2019-03-01T07:37:38.785Z,6.60
2019-03-01T07:40:08.601Z,6.60
2019-03-01T07:42:38.350Z,6.60
2019-03-01T07:45:09.134Z,6.60
2019-03-01T07:47:38.875Z,6.60
2019-03-01T07:50:09.182Z,6.60
2019-03-01T07:52:38.944Z,6.60
2019-03-01T07:55:09.380Z,6.60
2019-03-01T07:57:39.199Z,6.70
2019-03-01T08:00:14.240Z,6.70
2019-03-01T08:02:45.348Z,6.70
2019-03-01T08:05:16.383Z,6.70
2019-03-01T08:07:55.403Z,6.70
2019-03-01T08:10:22.527Z,6.60
2019-03-01T08:12:48.775Z,6.60
2019-03-01T08:15:18.542Z,6.70
2019-03-01T08:17:48.164Z,6.60
2019-03-01T08:20:17.937Z,6.70
2019-03-01T08:22:49.231Z,6.70
2019-03-01T08:25:23.419Z,6.70
2019-03-01T08:27:50.628Z,6.70
2019-03-01T08:30:20.650Z,6.70
2019-03-01T08:32:50.327Z,6.70
2019-03-01T08:35:20.048Z,6.70
2019-03-01T08:37:53.202Z,6.70
2019-03-01T08:40:21.187Z,6.80
2019-03-01T08:42:50.901Z,6.80
2019-03-01T08:45:20.594Z,6.90
2019-03-01T08:47:50.270Z,6.90
2019-03-01T08:50:21.038Z,6.90
2019-03-01T08:52:51.091Z,6.90
2019-03-01T08:55:20.878Z,6.90
2019-03-01T08:57:50.494Z,7.00
2019-03-01T09:00:22.964Z,6.90
2019-03-01T09:02:55.678Z,7.00
2019-03-01T09:05:25.344Z,7.00
2019-03-01T09:07:55.035Z,7.10
2019-03-01T09:10:24.764Z,7.10
2019-03-01T09:12:54.367Z,7.10
2019-03-01T09:15:23.970Z,7.20
2019-03-01T09:17:53.730Z,7.20
2019-03-01T09:20:23.324Z,7.10
2019-03-01T09:22:52.935Z,7.10
2019-03-01T09:25:22.573Z,7.00
2019-03-01T09:27:53.259Z,7.00
2019-03-01T09:30:24.504Z,7.00
2019-03-01T09:32:54.135Z,7.10
2019-03-01T09:35:29.881Z,7.10
2019-03-01T09:38:00.326Z,7.20
2019-03-01T09:40:30.017Z,7.20
2019-03-01T09:43:00.999Z,7.20
2019-03-01T09:45:36.108Z,7.20
2019-03-01T09:48:02.358Z,7.20
2019-03-01T09:50:34.583Z,7.20
2019-03-01T09:53:03.395Z,7.20
2019-03-01T09:55:34.806Z,7.20
2019-03-01T09:58:04.639Z,7.20
2019-03-01T10:00:34.710Z,7.10
2019-03-01T10:03:04.410Z,7.10
2019-03-01T10:05:34.090Z,7.20
2019-03-01T10:08:03.885Z,7.20
2019-03-01T10:10:33.681Z,7.10
2019-03-01T10:13:03.317Z,7.10
2019-03-01T10:15:33.066Z,7.10
2019-03-01T10:18:02.765Z,7.20
2019-03-01T10:20:32.393Z,7.30
2019-03-01T10:23:02.010Z,7.40
2019-03-01T10:25:31.642Z,7.50
2019-03-01T10:28:01.255Z,7.60
2019-03-01T10:30:30.954Z,7.70
2019-03-01T10:33:00.640Z,7.90
2019-03-01T10:35:30.486Z,8.00
2019-03-01T10:38:00.106Z,8.10
2019-03-01T10:40:29.706Z,8.20
2019-03-01T10:42:59.314Z,8.00
2019-03-01T10:45:29.227Z,8.00
2019-03-01T10:47:58.937Z,8.00
2019-03-01T10:50:28.559Z,8.00
2019-03-01T10:52:58.177Z,7.80
2019-03-01T10:55:27.859Z,7.70
2019-03-01T10:57:57.542Z,7.70
2019-03-01T11:00:27.582Z,7.80
2019-03-01T11:02:57.304Z,7.70
2019-03-01T11:05:28.402Z,7.70
2019-03-01T11:07:58.106Z,7.70
2019-03-01T11:10:30.081Z,7.80
2019-03-01T11:12:59.851Z,7.80
2019-03-01T11:15:29.681Z,7.80
2019-03-01T11:17:59.321Z,7.80
2019-03-01T11:20:29.197Z,7.90
2019-03-01T11:22:58.871Z,8.10
2019-03-01T11:25:28.583Z,8.20
2019-03-01T11:27:58.274Z,8.20
2019-03-01T11:30:29.314Z,8.10
2019-03-01T11:32:59.086Z,8.20
2019-03-01T11:35:28.862Z,8.20
2019-03-01T11:37:58.622Z,8.20
2019-03-01T11:40:30.524Z,8.20
2019-03-01T11:43:00.747Z,8.00
2019-03-01T11:45:30.523Z,7.90
2019-03-01T11:48:00.222Z,7.90
2019-03-01T11:50:32.126Z,8.00
2019-03-01T11:53:01.806Z,8.10
2019-03-01T11:55:31.586Z,8.10
2019-03-01T11:58:01.198Z,8.10
2019-03-01T12:00:31.094Z,8.30
2019-03-01T12:03:00.911Z,8.40
2019-03-01T12:05:30.532Z,8.30
2019-03-01T12:08:00.158Z,8.30
2019-03-01T12:10:30.124Z,8.30
2019-03-01T12:12:59.745Z,8.40
2019-03-01T12:15:30.426Z,8.50
2019-03-01T12:18:00.027Z,8.60
2019-03-01T12:20:29.962Z,8.60
2019-03-01T12:22:59.730Z,8.60
2019-03-01T12:25:29.363Z,8.60
2019-03-01T12:27:59.006Z,8.60
2019-03-01T12:30:28.760Z,8.50
2019-03-01T12:32:58.438Z,8.50
2019-03-01T12:35:28.035Z,8.40
2019-03-01T12:37:57.641Z,8.40
2019-03-01T12:40:27.651Z,8.40
2019-03-01T12:42:57.282Z,8.30
2019-03-01T12:45:26.905Z,8.30
2019-03-01T12:47:56.594Z,8.40
2019-03-01T12:50:26.202Z,8.50
2019-03-01T12:52:55.826Z,8.60
2019-03-01T12:55:25.476Z,8.50
2019-03-01T12:57:55.091Z,8.30
2019-03-01T13:00:27.084Z,8.30
2019-03-01T13:02:56.707Z,8.40
2019-03-01T13:05:29.432Z,8.40
2019-03-01T13:07:57.932Z,8.40
2019-03-01T13:10:28.493Z,8.40
2019-03-01T13:12:58.714Z,8.50
2019-03-01T13:15:29.492Z,8.50
2019-03-01T13:17:59.298Z,8.40
2019-03-01T13:20:29.929Z,8.60
2019-03-01T13:23:01.030Z,8.80
2019-03-01T13:25:30.931Z,8.90
2019-03-01T13:28:00.581Z,8.80
2019-03-01T13:30:32.697Z,8.50
2019-03-01T13:33:03.410Z,8.40
2019-03-01T13:35:33.610Z,8.40
2019-03-01T13:38:04.025Z,8.40
2019-03-01T13:40:33.850Z,8.50
2019-03-01T13:43:03.481Z,8.30
2019-03-01T13:45:33.180Z,8.30
2019-03-01T13:48:03.388Z,8.20
2019-03-01T13:50:33.075Z,8.20
2019-03-01T13:53:02.712Z,8.30
2019-03-01T13:55:32.389Z,8.30
2019-03-01T13:58:02.031Z,8.30
2019-03-01T14:00:31.781Z,8.40
2019-03-01T14:03:01.394Z,8.50
2019-03-01T14:05:31.007Z,8.50
2019-03-01T14:08:08.563Z,8.50
2019-03-01T14:10:32.267Z,8.60
2019-03-01T14:13:01.886Z,8.40
2019-03-01T14:15:31.646Z,8.30
2019-03-01T14:18:02.009Z,8.30
2019-03-01T14:20:31.745Z,8.30
2019-03-01T14:23:01.397Z,8.50
2019-03-01T14:25:31.089Z,8.50
2019-03-01T14:28:02.105Z,8.50
2019-03-01T14:30:33.458Z,8.40
2019-03-01T14:33:03.250Z,8.40
2019-03-01T14:35:32.894Z,8.50
2019-03-01T14:38:02.543Z,8.50
2019-03-01T14:40:32.187Z,8.30
2019-03-01T14:43:01.883Z,8.30
2019-03-01T14:45:31.530Z,8.30
2019-03-01T14:48:01.231Z,8.20
2019-03-01T14:50:33.600Z,8.20
2019-03-01T14:53:02.339Z,8.20
2019-03-01T14:55:38.518Z,8.20
2019-03-01T14:58:12.182Z,8.30
2019-03-01T15:01:00.643Z,8.30
2019-03-01T15:03:39.781Z,8.20
2019-03-01T15:06:10.382Z,8.30
2019-03-01T15:08:44.234Z,8.30
2019-03-01T15:11:18.506Z,8.30
2019-03-01T15:13:49.343Z,8.30
2019-03-01T15:16:18.950Z,8.20
2019-03-01T15:18:48.891Z,7.90
2019-03-01T15:21:18.516Z,7.80
2019-03-01T15:23:48.195Z,7.80
2019-03-01T15:26:17.953Z,7.80
2019-03-01T15:28:58.840Z,7.90
2019-03-01T15:31:28.738Z,7.90
2019-03-01T15:33:58.362Z,8.00
2019-03-01T15:36:27.975Z,8.10
2019-03-01T15:38:57.602Z,8.10
2019-03-01T15:41:27.282Z,8.10
2019-03-01T15:43:56.979Z,8.00
2019-03-01T15:46:26.695Z,8.00
2019-03-01T15:48:56.336Z,8.00
2019-03-01T15:51:25.957Z,7.90
2019-03-01T15:53:57.565Z,7.90
2019-03-01T15:56:28.216Z,7.90
2019-03-01T15:58:57.832Z,7.80
2019-03-01T16:01:27.496Z,7.80
2019-03-01T16:03:58.029Z,7.90
2019-03-01T16:06:27.906Z,7.90
2019-03-01T16:08:57.612Z,7.90
2019-03-01T16:11:27.222Z,7.80
2019-03-01T16:13:56.818Z,7.90
2019-03-01T16:16:26.438Z,7.80
2019-03-01T16:18:56.069Z,7.80
2019-03-01T16:21:25.766Z,7.80
2019-03-01T16:23:55.379Z,7.80
2019-03-01T16:26:29.784Z,7.70
2019-03-01T16:28:56.305Z,7.60
2019-03-01T16:31:28.977Z,7.50
2019-03-01T16:33:57.330Z,7.50
2019-03-01T16:36:36.016Z,7.60
2019-03-01T16:39:10.605Z,7.60
2019-03-01T16:41:42.915Z,7.60
2019-03-01T16:44:11.778Z,7.50
2019-03-01T16:46:41.511Z,7.40
2019-03-01T16:49:11.191Z,7.40
2019-03-01T16:51:40.828Z,7.40
2019-03-01T16:54:15.327Z,7.40
2019-03-01T16:56:42.010Z,7.30
2019-03-01T16:59:11.639Z,7.30
2019-03-01T17:01:41.330Z,7.40
2019-03-01T17:04:10.955Z,7.40
2019-03-01T17:06:40.591Z,7.30
2019-03-01T17:09:11.858Z,7.30
2019-03-01T17:11:42.407Z,7.30
2019-03-01T17:14:12.974Z,7.30
2019-03-01T17:16:42.590Z,7.30
2019-03-01T17:19:12.258Z,7.30
2019-03-01T17:21:41.895Z,7.30
2019-03-01T17:24:12.249Z,7.30
2019-03-01T17:26:42.958Z,7.20
2019-03-01T17:29:12.558Z,7.20
2019-03-01T17:31:42.182Z,7.20
2019-03-01T17:34:13.015Z,7.30
2019-03-01T17:36:42.641Z,7.30
2019-03-01T17:39:12.318Z,7.30
2019-03-01T17:41:44.863Z,7.40
2019-03-01T17:44:13.517Z,7.40
2019-03-01T17:46:43.127Z,7.30
2019-03-01T17:49:12.725Z,7.30
2019-03-01T17:51:42.334Z,7.30
2019-03-01T17:54:12.050Z,7.30
2019-03-01T17:56:41.654Z,7.20
2019-03-01T17:59:11.940Z,7.20
2019-03-01T18:01:42.586Z,7.20
2019-03-01T18:04:12.272Z,7.20
2019-03-01T18:06:42.000Z,7.20
2019-03-01T18:09:13.390Z,7.20
2019-03-01T18:11:44.535Z,7.20
2019-03-01T18:14:14.375Z,7.20
2019-03-01T18:16:44.055Z,7.10
2019-03-01T18:19:13.662Z,7.20
2019-03-01T18:21:46.432Z,7.20
2019-03-01T18:24:15.816Z,7.20
2019-03-01T18:26:46.707Z,7.20
2019-03-01T18:29:23.791Z,7.20
2019-03-01T18:31:56.395Z,7.20
2019-03-01T18:34:35.625Z,7.20
2019-03-01T18:37:19.011Z,7.20
2019-03-01T18:39:44.555Z,7.20
2019-03-01T18:42:17.429Z,7.30
2019-03-01T18:44:52.762Z,7.30
2019-03-01T18:47:27.901Z,7.30
2019-03-01T18:50:03.384Z,7.30
2019-03-01T18:52:35.677Z,7.30
2019-03-01T18:55:09.899Z,7.30
2019-03-01T18:57:44.209Z,7.30
2019-03-01T19:00:24.640Z,7.20
2019-03-01T19:03:01.017Z,7.30
2019-03-01T19:05:36.763Z,7.30
2019-03-01T19:08:08.721Z,7.30
2019-03-01T19:10:42.301Z,7.30
2019-03-01T19:13:14.337Z,7.30
2019-03-01T19:15:54.474Z,7.30
2019-03-01T19:18:23.763Z,7.20
2019-03-01T19:20:56.918Z,7.20
2019-03-01T19:23:29.339Z,7.20
2019-03-01T19:26:03.828Z,7.10
2019-03-01T19:28:40.023Z,7.10
2019-03-01T19:31:15.087Z,7.20
2019-03-01T19:33:50.325Z,7.20
2019-03-01T19:36:24.469Z,7.20
2019-03-01T19:39:00.384Z,7.20
2019-03-01T19:41:29.714Z,7.10
2019-03-01T19:44:04.877Z,7.10
2019-03-01T19:46:40.686Z,7.10
2019-03-01T19:49:14.625Z,7.10
2019-03-01T19:51:44.452Z,7.10
2019-03-01T19:54:18.131Z,7.10
2019-03-01T19:56:50.819Z,7.10
2019-03-01T19:59:24.604Z,7.10
2019-03-01T20:01:56.945Z,7.10
2019-03-01T20:04:29.082Z,7.10
2019-03-01T20:07:01.460Z,7.10
2019-03-01T20:09:31.967Z,7.20
2019-03-01T20:12:02.681Z,7.20
2019-03-01T20:14:33.787Z,7.20
2019-03-01T20:17:04.214Z,7.20
2019-03-01T20:19:36.203Z,7.10
2019-03-01T20:22:10.881Z,7.00
2019-03-01T20:24:43.288Z,7.00
2019-03-01T20:27:21.137Z,6.90
2019-03-01T20:29:56.392Z,6.80
2019-03-01T20:32:31.663Z,6.80
2019-03-01T20:35:05.513Z,6.70
2019-03-01T20:37:40.791Z,6.70
2019-03-01T20:40:13.592Z,6.60
2019-03-01T20:42:48.865Z,6.60
2019-03-01T20:45:30.009Z,6.60
2019-03-01T20:48:02.649Z,6.50
2019-03-01T20:50:37.210Z,6.50
2019-03-01T20:53:13.361Z,6.50
2019-03-01T20:55:44.665Z,6.50
2019-03-01T20:58:19.644Z,6.50
2019-03-01T21:00:55.263Z,6.50
2019-03-01T21:03:29.928Z,6.60
2019-03-01T21:06:04.638Z,6.60
2019-03-01T21:08:40.507Z,6.60
2019-03-01T21:11:17.542Z,6.60
2019-03-01T21:13:51.237Z,6.70
2019-03-01T21:16:25.735Z,6.60
2019-03-01T21:19:05.538Z,6.60
2019-03-01T21:21:44.224Z,6.60
2019-03-01T21:24:18.219Z,6.60
2019-03-01T21:26:53.240Z,6.60
2019-03-01T21:29:28.448Z,6.60
2019-03-01T21:32:11.723Z,6.50
2019-03-01T21:34:46.187Z,6.50
2019-03-01T21:37:20.213Z,6.40
2019-03-01T21:39:50.707Z,6.40
2019-03-01T21:42:26.102Z,6.30
2019-03-01T21:45:00.112Z,6.20
2019-03-01T21:47:33.083Z,6.20
2019-03-01T21:50:08.969Z,6.10
2019-03-01T21:52:46.754Z,6.10
2019-03-01T21:55:28.003Z,6.10
2019-03-01T21:57:56.150Z,6.10
2019-03-01T22:00:31.503Z,6.00
2019-03-01T22:03:01.951Z,6.00
2019-03-01T22:05:31.566Z,6.00
2019-03-01T22:08:01.189Z,5.90
2019-03-01T22:10:31.561Z,5.90
2019-03-01T22:13:02.146Z,5.80
2019-03-01T22:15:31.818Z,5.80
2019-03-01T22:18:01.486Z,5.80
2019-03-01T22:20:31.074Z,5.70
2019-03-01T22:23:00.752Z,5.70
2019-03-01T22:25:30.372Z,5.60
2019-03-01T22:28:01.188Z,5.60
2019-03-01T22:30:31.378Z,5.60
2019-03-01T22:33:01.124Z,5.50
2019-03-01T22:35:30.737Z,5.40
2019-03-01T22:38:01.094Z,5.40
2019-03-01T22:40:31.690Z,5.30
2019-03-01T22:43:01.322Z,5.30
2019-03-01T22:45:30.942Z,5.30
2019-03-01T22:48:00.582Z,5.20
2019-03-01T22:50:31.193Z,5.20
2019-03-01T22:53:03.151Z,5.10
2019-03-01T22:55:33.563Z,5.10
2019-03-01T22:58:03.244Z,5.10
2019-03-01T23:01:09.355Z,5.00
2019-03-01T23:03:41.098Z,5.00
2019-03-01T23:06:11.742Z,5.00
2019-03-01T23:08:42.117Z,4.90
2019-03-01T23:11:11.725Z,4.90
2019-03-01T23:13:41.380Z,4.90
2019-03-01T23:16:11.089Z,4.90
2019-03-01T23:18:41.403Z,4.90
2019-03-01T23:21:12.343Z,4.90
2019-03-01T23:23:41.966Z,4.90
2019-03-01T23:26:11.749Z,4.90
2019-03-01T23:28:43.784Z,4.90
2019-03-01T23:31:13.814Z,5.00
2019-03-01T23:33:44.555Z,5.10
2019-03-01T23:36:14.181Z,5.10
2019-03-01T23:38:46.577Z,5.20
2019-03-01T23:41:15.104Z,5.20
2019-03-01T23:43:44.718Z,5.30
2019-03-01T23:46:14.334Z,5.30
2019-03-01T23:48:45.540Z,5.30
2019-03-01T23:51:15.266Z,5.40
2019-03-01T23:53:44.877Z,5.30
2019-03-01T23:56:14.490Z,5.40
2019-03-01T23:58:47.978Z,5.40
